Time;durP1;ratioP1;P1;durP2;ratioP2;P2;SDS_P1;SDS_P2;PMS_P1;PMS_P2;Temp;Humidity;BMP_temperature;BMP_pressure;BME280_temperature;BME280_humidity;BME280_pressure;Samples;Min_cycle;Max_cycle;Signal;HPM_P1;HPM_P2
2022/12/08 00:01:03;;;;;;;;;;;;;;;4.12;100.00;99280.16;6276129;22;19918;-81
2022/12/08 00:03:29;;;;;;;;;;;;;;;4.19;100.00;99281.72;6276354;22;19957;-83
2022/12/08 00:11:22;;;;;;;;;;;;;;;4.22;100.00;99266.81;6277580;22;19918;-82
2022/12/08 00:13:50;;;;;;;;;;;;;;;4.20;100.00;99264.22;6278015;22;19911;-86
2022/12/08 00:16:15;;;;;;;;;;;;;;;4.23;100.00;99253.66;6276995;22;19916;-82
2022/12/08 00:18:41;;;;;;;;;;;;;;;4.23;100.00;99252.78;6274913;22;19960;-82
2022/12/08 00:21:06;;;;;;;;;;;;;;;4.22;100.00;99251.94;6277333;22;20002;-82
2022/12/08 00:23:31;;;;;;;;;;;;;;;4.23;100.00;99248.41;6275983;22;20339;-82
2022/12/08 00:26:00;;;;;;;;;;;;;;;4.27;100.00;99246.56;6275413;22;19989;-82
2022/12/08 00:28:25;;;;;;;;;;;;;;;4.19;100.00;99246.75;6276302;22;19946;-82
2022/12/08 00:30:50;;;;;;;;;;;;;;;4.18;100.00;99238.03;6276326;22;19911;-82
2022/12/08 00:33:15;;;;;;;;;;;;;;;4.17;100.00;99238.94;6267794;22;19915;-83
2022/12/08 00:35:41;;;;;;;;;;;;;;;4.21;100.00;99239.72;6277473;22;19911;-82
2022/12/08 00:38:06;;;;;;;;;;;;;;;4.22;100.00;99235.34;6275292;22;20247;-82
2022/12/08 00:40:31;;;;;;;;;;;;;;;4.19;100.00;99237.13;6275720;22;19911;-82
2022/12/08 00:42:56;;;;;;;;;;;;;;;4.21;100.00;99233.63;6277664;22;19922;-83
2022/12/08 00:45:22;;;;;;;;;;;;;;;4.19;100.00;99228.41;6277663;22;19918;-82
2022/12/08 00:47:47;;;;;;;;;;;;;;;4.24;100.00;99230.91;6267206;22;20397;-82
2022/12/08 00:50:12;;;;;;;;;;;;;;;4.25;100.00;99236.13;6275897;22;20323;-82
2022/12/08 00:52:37;;;;;;;;;;;;;;;4.26;100.00;99231.72;6277613;22;20282;-82
2022/12/08 00:55:03;;;;;;;;;;;;;;;4.24;100.00;99228.28;6277551;22;19993;-82
2022/12/08 03:13:51;;;;;;;;;;;;;;;4.73;100.00;99122.00;6059969;23;20340;-81
2022/12/08 03:16:18;;;;;;;;;;;;;;;4.77;100.00;99126.25;6065508;23;19921;-81
2022/12/08 03:18:47;;;;;;;;;;;;;;;4.76;100.00;99119.28;6065146;23;19914;-84
2022/12/08 03:21:17;;;;;;;;;;;;;;;4.78;100.00;99119.22;6190842;23;19963;-83
2022/12/08 03:23:43;;;;;;;;;;;;;;;4.80;100.00;99113.00;6190253;23;20290;-81
2022/12/08 03:26:16;;;;;;;;;;;;;;;4.83;100.00;99118.16;6063120;23;20092;-81
2022/12/08 03:28:42;;;;;;;;;;;;;;;4.83;100.00;99110.28;6190480;23;19921;-81
2022/12/08 03:31:10;;;;;;;;;;;;;;;4.83;100.00;99107.66;6064790;23;19913;-81
2022/12/08 03:33:38;;;;;;;;;;;;;;;4.87;100.00;99104.06;6064792;23;19929;-82
2022/12/08 03:36:06;;;;;;;;;;;;;;;4.87;100.00;99109.31;6064940;23;19920;-82
2022/12/08 03:38:41;;;;;;;;;;;;;;;4.88;100.00;99097.03;6064895;23;19956;-82
2022/12/08 03:41:18;;;;;;;;;;;;;;;4.89;100.00;99091.75;6063041;23;20416;-82
2022/12/08 03:43:45;;;;;;;;;;;;;;;4.88;100.00;99084.78;6064570;23;19914;-84
2022/12/08 03:46:10;;;;;;;;;;;;;;;4.91;100.00;99082.06;6190025;23;19968;-83
2022/12/08 03:48:35;;;;;;;;;;;;;;;4.93;100.00;99091.66;6064735;23;19921;-83
2022/12/08 03:51:01;;;;;;;;;;;;;;;4.91;100.00;99084.69;6064687;23;19914;-83
2022/12/08 03:53:26;;;;;;;;;;;;;;;4.93;100.00;99084.66;6064932;23;20273;-85
2022/12/08 03:55:52;;;;;;;;;;;;;;;4.95;100.00;99079.34;6064038;23;19936;-83
2022/12/08 03:58:17;;;;;;;;;;;;;;;4.96;100.00;99065.28;6064046;23;19918;-84
2022/12/08 04:00:42;;;;;;;;;;;;;;;4.94;100.00;99065.34;6064619;23;20300;-85
2022/12/08 04:03:07;;;;;;;;;;;;;;;4.96;100.00;99070.56;6064954;23;19913;-84
2022/12/08 04:05:33;;;;;;;;;;;;;;;4.98;100.00;99068.72;6065114;23;19945;-84
2022/12/08 04:07:58;;;;;;;;;;;;;;;4.97;100.00;99062.63;6064890;23;19914;-84
2022/12/08 04:10:23;;;;;;;;;;;;;;;4.98;100.00;99064.34;6064846;23;19913;-83
2022/12/08 04:12:48;;;;;;;;;;;;;;;4.98;100.00;99058.22;6063244;23;19925;-84
2022/12/08 04:15:14;;;;;;;;;;;;;;;5.01;100.00;99060.75;6064844;23;19914;-84
2022/12/08 04:17:39;;;;;;;;;;;;;;;4.97;100.00;99061.78;6064970;23;19920;-84
2022/12/08 04:20:05;;;;;;;;;;;;;;;5.01;100.00;99064.25;6064823;23;20353;-83
2022/12/08 04:22:30;;;;;;;;;;;;;;;5.01;100.00;99061.63;6164250;23;19914;-84
2022/12/08 04:24:55;;;;;;;;;;;;;;;5.01;100.00;99064.25;6064777;23;19921;-84
2022/12/08 04:27:20;;;;;;;;;;;;;;;5.01;100.00;99066.00;6063630;23;19910;-83
2022/12/08 04:29:48;;;;;;;;;;;;;;;5.02;100.00;99059.84;6064889;23;19918;-86
2022/12/08 04:32:13;;;;;;;;;;;;;;;5.01;100.00;99058.13;6215732;23;19914;-82
2022/12/08 04:34:38;;;;;;;;;;;;;;;5.00;100.00;99059.06;6064794;23;19964;-82
2022/12/08 04:37:04;;;;;;;;;;;;;;;5.02;100.00;99059.84;6064778;23;19985;-82
2022/12/08 04:39:29;;;;;;;;;;;;;;;5.02;100.00;99049.34;6064847;23;19910;-83
2022/12/08 04:41:54;;;;;;;;;;;;;;;5.02;100.00;99044.94;6213417;23;19960;-83
2022/12/08 04:44:19;;;;;;;;;;;;;;;5.02;100.00;99044.09;6064727;23;19917;-83
2022/12/08 04:46:44;;;;;;;;;;;;;;;5.03;100.00;99045.84;6189702;23;19946;-82
2022/12/08 08:50:09;;;;;;;;;;;;;;;5.70;100.00;99015.59;6089913;23;19987;-83
2022/12/08 08:52:34;;;;;;;;;;;;;;;5.69;100.00;99019.09;6091728;23;19917;-83
2022/12/08 08:54:59;;;;;;;;;;;;;;;5.68;100.00;99012.13;6092150;23;19953;-82
2022/12/08 08:57:24;;;;;;;;;;;;;;;5.67;100.00;99019.16;6091013;23;19914;-83
2022/12/08 08:59:50;;;;;;;;;;;;;;;5.67;100.00;99016.53;6217712;23;19918;-84
2022/12/08 09:02:16;;;;;;;;;;;;;;;5.67;100.00;99016.53;6090506;23;19913;-85
2022/12/08 09:04:42;;;;;;;;;;;;;;;5.71;100.00;99019.91;6091519;23;19917;-83
2022/12/08 09:07:07;;;;;;;;;;;;;;;5.70;100.00;99015.59;6189017;23;19917;-83
2022/12/08 09:09:32;;;;;;;;;;;;;;;5.71;100.00;99012.03;6089268;23;19917;-83
2022/12/08 09:11:58;;;;;;;;;;;;;;;5.75;100.00;99008.38;6092297;23;20350;-83
2022/12/08 09:14:23;;;;;;;;;;;;;;;5.73;100.00;99005.81;6093404;23;20030;-83
2022/12/08 09:16:48;;;;;;;;;;;;;;;5.73;100.00;99007.59;6092540;23;20330;-84
2022/12/08 09:19:14;;;;;;;;;;;;;;;5.76;100.00;99007.44;6192522;23;19944;-83
2022/12/08 09:21:39;;;;;;;;;;;;;;;5.73;100.00;99002.34;6092484;23;19913;-83
2022/12/08 09:24:15;;;;;;;;;;;;;;;;;;;;;
2022/12/08 09:26:44;;;;;;;;;;;;;;;5.79;100.00;99002.97;6093389;23;19988;-84
2022/12/08 09:29:10;;;;;;;;;;;;;;;7.67;100.00;98992.06;6194174;23;19921;-84
2022/12/08 09:31:35;;;;;;;;;;;;;;;8.95;100.00;98993.28;6094580;23;19913;-87
2022/12/08 09:34:01;;;;;;;;;;;;;;;9.09;100.00;99002.28;6191368;23;19920;-88
2022/12/08 09:36:29;;;;;;;;;;;;;;;9.14;100.00;99002.00;6219642;23;20321;-88
2022/12/08 09:38:55;;;;;;;;;;;;;;;9.22;100.00;98999.00;6093539;23;20340;-88
2022/12/08 09:41:29;;;;;;;;;;;;;;;8.76;100.00;98996.84;6220006;23;19913;-90
2022/12/08 09:44:03;;;;;;;;;;;;;;;7.57;100.00;99006.59;6194651;23;19967;-89
2022/12/08 09:46:31;;;;;;;;;;;;;;;7.13;100.00;98998.75;6193813;23;19910;-91
2022/12/08 09:48:58;;;;;;;;;;;;;;;6.90;100.00;98996.16;6238391;23;19920;-90
2022/12/08 09:51:24;;;;;;;;;;;;;;;6.73;100.00;98999.47;6184178;23;19931;-90
2022/12/08 09:54:27;;;;;;;;;;;;;;;6.67;100.00;98993.56;6226748;23;19984;-96
2022/12/08 09:57:00;;;;;;;;;;;;;;;6.56;100.00;98986.13;6224799;23;19956;-90
2022/12/08 09:59:34;;;;;;;;;;;;;;;6.50;100.00;98989.81;6224464;23;19959;-90
2022/12/08 10:05:47;;;;;;;;;;;;;;;6.39;100.00;98984.13;6125154;22;20030;-96
2022/12/08 10:08:28;;;;;;;;;;;;;;;6.31;100.00;98983.56;6217476;23;19908;-90
2022/12/08 10:10:59;;;;;;;;;;;;;;;6.30;100.00;98974.81;6122665;23;19917;-90
2022/12/08 10:16:37;;;;;;;;;;;;;;;6.27;100.00;98974.94;6123226;23;19959;-91
2022/12/08 10:19:21;;;;;;;;;;;;;;;6.24;100.00;98975.06;6223580;23;19988;-91
2022/12/08 10:21:47;;;;;;;;;;;;;;;6.21;100.00;98972.53;6225597;23;19980;-90
2022/12/08 10:24:36;;;;;;;;;;;;;;;6.19;100.00;98977.00;6225040;23;20276;-90
2022/12/08 10:27:04;;;;;;;;;;;;;;;6.21;100.00;98967.28;6225995;23;19920;-90
2022/12/08 10:29:54;;;;;;;;;;;;;;;;;;;;;
2022/12/08 10:32:23;;;;;;;;;;;;;;;6.17;100.00;98960.41;6121162;23;19976;-90
2022/12/08 10:35:02;;;;;;;;;;;;;;;6.18;100.00;98962.13;6223918;23;19913;-89
2022/12/08 10:37:30;;;;;;;;;;;;;;;6.18;100.00;98962.13;6226219;23;19913;-90
2022/12/08 10:40:01;;;;;;;;;;;;;;;6.11;100.00;98956.25;6122337;23;19947;-90
2022/12/08 10:42:35;;;;;;;;;;;;;;;6.10;100.00;98951.91;6224061;23;19966;-90
2022/12/08 10:45:09;;;;;;;;;;;;;;;6.12;100.00;98951.84;6249555;22;19924;-94
2022/12/08 10:47:37;;;;;;;;;;;;;;;6.13;100.00;98948.31;6222862;23;20223;-91
2022/12/08 10:50:15;;;;;;;;;;;;;;;6.13;100.00;98953.56;6225072;23;19913;-90
2022/12/08 10:52:41;;;;;;;;;;;;;;;6.13;100.00;98946.53;6224720;23;19917;-90
2022/12/08 10:55:36;;;;;;;;;;;;;;;6.09;100.00;98944.91;6250357;22;19917;-92
2022/12/08 10:58:01;;;;;;;;;;;;;;;6.11;100.00;98943.09;6122909;22;19917;-90
2022/12/08 11:00:28;;;;;;;;;;;;;;;6.14;100.00;98942.09;6247784;22;22495;-90
2022/12/08 11:03:03;;;;;;;;;;;;;;;6.13;100.00;98932.53;6120596;23;19913;-90
2022/12/08 11:05:51;;;;;;;;;;;;;;;6.08;100.00;98931.81;6224214;23;19913;-90
2022/12/08 11:08:51;;;;;;;;;;;;;;;6.09;100.00;98929.13;6243069;23;20295;-92
2022/12/08 11:11:42;;;;;;;;;;;;;;;6.07;100.00;98916.97;6099171;23;19917;-91
2022/12/08 11:14:20;;;;;;;;;;;;;;;6.05;100.00;98917.03;6205772;23;19916;-91
2022/12/08 11:16:45;;;;;;;;;;;;;;;6.03;100.00;98918.88;6243592;23;19912;-90
2022/12/08 11:19:14;;;;;;;;;;;;;;;6.06;100.00;98912.63;6217197;23;19954;-91
2022/12/08 11:21:41;;;;;;;;;;;;;;;6.06;100.00;98907.34;6243056;23;19997;-91
2022/12/08 11:24:27;;;;;;;;;;;;;;;6.05;100.00;98911.78;6217745;23;20346;-90
2022/12/08 11:27:01;;;;;;;;;;;;;;;6.06;100.00;98907.34;6243052;23;19912;-89
2022/12/08 11:29:35;;;;;;;;;;;;;;;6.04;100.00;98903.94;6218503;23;19969;-90
2022/12/08 11:32:59;;;;;;;;;;;;;;;6.07;100.00;98903.81;6199803;23;19959;-94
2022/12/08 11:35:51;;;;;;;;;;;;;;;6.06;100.00;98884.53;6100667;23;19963;-90
2022/12/08 11:38:41;;;;;;;;;;;;;;;6.05;100.00;98895.09;6057464;23;20325;-90
2022/12/08 11:45:05;;;;;;;;;;;;;;;6.06;100.00;98886.31;6038431;23;19918;-91
2022/12/08 11:48:05;;;;;;;;;;;;;;;6.05;100.00;98880.22;6143922;23;19971;-94
2022/12/08 11:50:53;;;;;;;;;;;;;;;6.09;100.00;98883.56;6211294;23;19913;-90
2022/12/08 11:53:39;;;;;;;;;;;;;;;6.06;100.00;98871.38;6247276;23;20395;-90
2022/12/08 11:56:19;;;;;;;;;;;;;;;6.12;100.00;98870.31;6220375;23;19950;-88
2022/12/08 11:58:51;;;;;;;;;;;;;;;6.11;100.00;98872.09;6221088;23;19922;-90
2022/12/08 12:01:36;;;;;;;;;;;;;;;6.11;100.00;98856.31;6248127;23;19919;-90
2022/12/08 12:04:26;;;;;;;;;;;;;;;6.15;100.00;98854.41;6245036;23;19919;-96
2022/12/08 12:12:56;;;;;;;;;;;;;;;6.15;100.00;98852.63;6198128;22;19918;-90
2022/12/08 12:15:28;;;;;;;;;;;;;;;6.14;100.00;98850.03;6195035;23;19922;-89
2022/12/08 12:18:09;;;;;;;;;;;;;;;6.14;100.00;98848.28;6194044;23;20022;-89
2022/12/08 12:20:50;;;;;;;;;;;;;;;6.15;100.00;98849.13;6094163;23;19917;-89
2022/12/08 12:23:21;;;;;;;;;;;;;;;6.14;100.00;98850.03;6220688;23;19972;-88
2022/12/08 12:26:16;;;;;;;;;;;;;;;;;;;;;
2022/12/08 12:28:51;;;;;;;;;;;;;;;6.17;100.00;98837.66;6094487;23;19988;-89
2022/12/08 12:31:27;;;;;;;;;;;;;;;6.17;100.00;98827.13;6220485;23;19971;-88
2022/12/08 12:37:17;;;;;;;;;;;;;;;6.17;100.00;98823.63;6093687;23;19920;-89
2022/12/08 12:40:01;;;;;;;;;;;;;;;6.19;100.00;98824.44;6093926;23;19919;-89
2022/12/08 12:42:44;;;;;;;;;;;;;;;6.19;100.00;98821.81;6093485;23;19960;-88
2022/12/08 12:45:24;;;;;;;;;;;;;;;6.21;100.00;98822.59;6093201;23;20291;-89
2022/12/08 12:48:07;;;;;;;;;;;;;;;6.18;100.00;98818.31;6194640;23;19992;-88
2022/12/08 12:50:58;;;;;;;;;;;;;;;;;;;;;
2022/12/08 12:53:24;;;;;;;;;;;;;;;6.19;100.00;98824.44;6093785;23;20000;-89
2022/12/08 12:56:15;;;;;;;;;;;;;;;6.20;100.00;98818.25;6094098;23;19952;-88
2022/12/08 13:01:18;;;;;;;;;;;;;;;6.19;100.00;98816.53;6124617;22;19925;-93
2022/12/08 13:03:54;;;;;;;;;;;;;;;;;;;;;
2022/12/08 13:06:22;;;;;;;;;;;;;;;6.21;100.00;98822.59;6123190;23;19999;-90
2022/12/08 13:08:55;;;;;;;;;;;;;;;6.22;100.00;98815.53;6225089;23;19917;-89
2022/12/08 13:11:21;;;;;;;;;;;;;;;6.23;100.00;98819.91;6225220;23;19913;-88
2022/12/08 13:13:58;;;;;;;;;;;;;;;6.20;100.00;98818.25;6123267;23;19955;-89
2022/12/08 13:16:34;;;;;;;;;;;;;;;6.23;100.00;98812.00;6224949;23;20351;-90
2022/12/08 13:19:02;;;;;;;;;;;;;;;6.21;100.00;98817.34;6223283;23;19947;-89
2022/12/08 13:21:32;;;;;;;;;;;;;;;6.24;100.00;98811.94;6122973;23;19917;-88
2022/12/08 13:24:19;;;;;;;;;;;;;;;;;;;;;
2022/12/08 13:26:48;;;;;;;;;;;;;;;6.24;100.00;98817.22;6122883;23;20001;-87
2022/12/08 13:29:21;;;;;;;;;;;;;;;6.24;100.00;98806.69;6224703;23;19982;-89
2022/12/08 13:31:55;;;;;;;;;;;;;;;6.25;100.00;98802.28;6122837;23;19968;-88
2022/12/08 13:34:40;;;;;;;;;;;;;;;6.27;100.00;98805.69;6121182;23;19991;-87
2022/12/08 13:37:23;;;;;;;;;;;;;;;6.26;100.00;98796.09;6122625;23;19966;-88
2022/12/08 13:40:15;;;;;;;;;;;;;;;6.27;100.00;98790.78;6225365;23;19944;-89
2022/12/08 13:42:55;;;;;;;;;;;;;;;6.28;100.00;98786.38;6123042;22;19913;-87
2022/12/08 13:45:43;;;;;;;;;;;;;;;6.32;100.00;98795.84;6122966;23;19992;-88
2022/12/08 13:48:12;;;;;;;;;;;;;;;6.31;100.00;98784.44;6222604;23;20283;-89
2022/12/08 13:50:40;;;;;;;;;;;;;;;6.30;100.00;98788.03;6122609;23;20027;-88
2022/12/08 13:53:27;;;;;;;;;;;;;;;6.32;100.00;98793.22;6224665;23;19913;-91
2022/12/08 13:56:00;;;;;;;;;;;;;;;6.33;100.00;98795.78;6224212;23;20125;-87
2022/12/08 13:58:31;;;;;;;;;;;;;;;6.30;100.00;98785.41;6122644;23;19913;-88
2022/12/08 14:01:03;;;;;;;;;;;;;;;6.34;100.00;98783.47;6224125;22;19937;-88
2022/12/08 14:03:29;;;;;;;;;;;;;;;6.33;100.00;98781.75;6120713;23;19913;-88
2022/12/08 14:09:13;;;;;;;;;;;;;;;6.33;100.00;98785.28;6116849;22;19936;-87
2022/12/08 14:12:02;;;;;;;;;;;;;;;6.32;100.00;98785.34;6224096;23;19917;-88
2022/12/08 14:14:35;;;;;;;;;;;;;;;6.33;100.00;98787.03;6122644;23;19920;-89
2022/12/08 14:17:05;;;;;;;;;;;;;;;6.35;100.00;98786.06;6123014;23;19912;-87
2022/12/08 14:19:43;;;;;;;;;;;;;;;;;;;;;
2022/12/08 14:22:37;;;;;;;;;;;;;;;6.33;100.00;98787.91;6122292;23;19995;-91
2022/12/08 14:25:03;;;;;;;;;;;;;;;6.43;100.00;98785.75;6122963;22;20004;-89
2022/12/08 14:27:32;;;;;;;;;;;;;;;6.89;100.00;98783.78;6224002;23;19921;-84
2022/12/08 14:30:13;;;;;;;;;;;;;;;6.66;100.00;98784.75;6249703;22;19948;-86
2022/12/08 14:32:39;;;;;;;;;;;;;;;6.60;100.00;98787.63;6222516;23;19916;-86
2022/12/08 14:35:07;;;;;;;;;;;;;;;6.57;100.00;98776.41;6122105;23;20239;-88
2022/12/08 14:37:41;;;;;;;;;;;;;;;6.58;100.00;98781.59;6122942;23;19913;-85
2022/12/08 14:40:12;;;;;;;;;;;;;;;6.57;100.00;98787.75;6223991;23;19928;-84
2022/12/08 14:42:44;;;;;;;;;;;;;;;6.54;100.00;98778.25;6122184;23;20221;-85
2022/12/08 14:45:13;;;;;;;;;;;;;;;6.52;100.00;98789.75;6122145;23;19984;-87
2022/12/08 14:47:39;;;;;;;;;;;;;;;6.54;100.00;98787.91;6222277;23;19955;-86
2022/12/08 14:50:24;;;;;;;;;;;;;;;6.53;100.00;98792.31;6122576;23;19913;-85
2022/12/08 14:52:58;;;;;;;;;;;;;;;6.55;100.00;98786.97;6224281;22;19909;-88
2022/12/08 14:55:24;;;;;;;;;;;;;;;6.54;100.00;98788.78;6122017;23;19913;-85
2022/12/08 14:57:49;;;;;;;;;;;;;;;6.56;100.00;98783.44;6249978;22;19909;-89
2022/12/08 15:00:18;;;;;;;;;;;;;;;6.59;100.00;98790.34;6249138;22;19913;-84
2022/12/08 15:02:45;;;;;;;;;;;;;;;6.56;100.00;98796.59;6120631;22;19921;-86
2022/12/08 15:05:13;;;;;;;;;;;;;;;6.57;100.00;98798.28;6122391;23;19913;-86
2022/12/08 15:07:47;;;;;;;;;;;;;;;6.57;100.00;98795.66;6225608;23;19949;-84
2022/12/08 15:10:15;;;;;;;;;;;;;;;6.58;100.00;98799.16;6123046;23;19945;-86
2022/12/08 15:12:57;;;;;;;;;;;;;;;6.55;100.00;98790.47;6123246;23;19957;-85
2022/12/08 15:15:23;;;;;;;;;;;;;;;6.57;100.00;98798.28;6123400;23;20383;-87
2022/12/08 15:18:07;;;;;;;;;;;;;;;6.59;100.00;98793.84;6122092;23;19913;-83
2022/12/08 15:20:39;;;;;;;;;;;;;;;6.60;100.00;98794.69;6225302;23;19917;-86
2022/12/08 15:23:05;;;;;;;;;;;;;;;6.61;100.00;98799.88;6225758;23;19913;-87
2022/12/08 15:25:30;;;;;;;;;;;;;;;6.62;100.00;98790.22;6225737;23;19920;-84
2022/12/08 15:28:01;;;;;;;;;;;;;;;6.58;100.00;98783.38;6225979;23;20317;-85
2022/12/08 15:30:28;;;;;;;;;;;;;;;6.61;100.00;98792.00;6123605;23;19921;-86
2022/12/08 15:32:54;;;;;;;;;;;;;;;6.61;100.00;98785.88;6121776;23;19917;-87
2022/12/08 15:35:20;;;;;;;;;;;;;;;6.61;100.00;98786.72;6251918;22;19912;-89
2022/12/08 15:37:45;;;;;;;;;;;;;;;6.64;100.00;98789.22;6226651;23;20226;-95
2022/12/08 15:40:16;;;;;;;;;;;;;;;6.67;100.00;98788.22;6252031;22;20329;-85
2022/12/08 15:42:41;;;;;;;;;;;;;;;6.64;100.00;98780.50;6225968;23;19913;-86
2022/12/08 15:45:10;;;;;;;;;;;;;;;6.65;100.00;98779.56;6123643;23;19952;-86
2022/12/08 15:47:35;;;;;;;;;;;;;;;6.65;100.00;98774.28;6121547;23;19917;-88
2022/12/08 15:50:03;;;;;;;;;;;;;;;6.64;100.00;98776.06;6123243;23;19913;-88
2022/12/08 15:52:28;;;;;;;;;;;;;;;6.65;100.00;98776.91;6225721;23;19923;-86
2022/12/08 15:54:53;;;;;;;;;;;;;;;6.66;100.00;98776.00;6123356;23;19917;-84
2022/12/08 15:57:21;;;;;;;;;;;;;;;6.66;100.00;98768.09;6122913;23;19917;-88
2022/12/08 15:59:49;;;;;;;;;;;;;;;6.68;100.00;98774.16;6123396;23;20283;-87
2022/12/08 16:02:14;;;;;;;;;;;;;;;6.92;100.00;98766.97;6122935;22;19924;-88
2022/12/08 16:04:40;;;;;;;;;;;;;;;6.83;100.00;98773.50;6122774;23;19913;-85
2022/12/08 16:07:06;;;;;;;;;;;;;;;6.80;100.00;98776.25;6123469;23;19959;-83
2022/12/08 16:09:34;;;;;;;;;;;;;;;6.80;100.00;98773.63;6123474;23;19928;-85
2022/12/08 16:14:44;;;;;;;;;;;;;;;6.81;100.00;98766.56;6123313;23;19919;-87
2022/12/08 16:17:13;;;;;;;;;;;;;;;6.80;100.00;98765.72;6123345;23;20302;-91
2022/12/08 16:19:38;;;;;;;;;;;;;;;6.83;100.00;98772.63;6121158;23;19913;-92
2022/12/08 16:22:04;;;;;;;;;;;;;;;6.82;100.00;98765.66;6123560;23;19913;-91
2022/12/08 16:24:29;;;;;;;;;;;;;;;6.80;100.00;98772.78;6123372;23;19920;-85
2022/12/08 16:26:55;;;;;;;;;;;;;;;6.81;100.00;98771.84;6123305;23;19920;-84
2022/12/08 16:29:21;;;;;;;;;;;;;;;6.83;100.00;98767.34;6223708;23;19943;-86
2022/12/08 16:31:47;;;;;;;;;;;;;;;6.82;100.00;98768.31;6123885;23;19913;-91
2022/12/08 16:34:12;;;;;;;;;;;;;;;6.83;100.00;98762.09;6223769;23;20367;-91
2022/12/08 16:36:38;;;;;;;;;;;;;;;6.82;100.00;98760.41;6123923;23;19920;-95
2022/12/08 16:39:03;;;;;;;;;;;;;;;6.83;100.00;98756.81;6123245;23;20313;-87
2022/12/08 16:44:12;;;;;;;;;;;;;;;6.84;100.00;98753.28;6123282;23;19943;-86
2022/12/08 16:46:45;;;;;;;;;;;;;;;6.85;100.00;98749.72;6225181;23;20244;-89
2022/12/08 16:49:10;;;;;;;;;;;;;;;6.85;100.00;98739.19;6223879;23;19939;-88
2022/12/08 16:51:36;;;;;;;;;;;;;;;6.86;100.00;98741.78;6122887;23;19948;-88
2022/12/08 16:54:03;;;;;;;;;;;;;;;6.85;100.00;98740.03;6251741;22;19913;-89
2022/12/08 16:56:31;;;;;;;;;;;;;;;6.84;100.00;98734.84;6123564;23;20356;-92
2022/12/08 16:58:56;;;;;;;;;;;;;;;6.86;100.00;98739.13;6123579;23;19913;-91
2022/12/08 17:01:22;;;;;;;;;;;;;;;6.87;100.00;98742.63;6225095;23;19974;-89
2022/12/08 17:03:47;;;;;;;;;;;;;;;6.85;100.00;98734.78;6224530;23;19913;-89
2022/12/08 17:06:17;;;;;;;;;;;;;;;6.87;100.00;98738.19;6123710;23;20051;-91
2022/12/08 17:08:45;;;;;;;;;;;;;;;6.86;100.00;98735.63;6225609;23;19928;-91
2022/12/08 17:11:21;;;;;;;;;;;;;;;6.85;100.00;98734.78;6123882;23;19909;-88
2022/12/08 17:13:58;;;;;;;;;;;;;;;;;;;;;
2022/12/08 17:16:25;;;;;;;;;;;;;;;6.91;100.00;98737.16;6122936;23;19992;-94
2022/12/08 17:18:52;;;;;;;;;;;;;;;6.93;100.00;98739.72;6123464;23;19920;-86
2022/12/08 17:21:17;;;;;;;;;;;;;;;6.93;100.00;98734.44;6250901;22;19992;-87
2022/12/08 17:23:43;;;;;;;;;;;;;;;6.96;100.00;98728.19;6250124;22;20356;-90
2022/12/08 17:26:08;;;;;;;;;;;;;;;6.93;100.00;98734.44;6122838;23;19920;-86
2022/12/08 17:28:34;;;;;;;;;;;;;;;6.95;100.00;98737.00;6225083;23;19952;-85
2022/12/08 17:30:59;;;;;;;;;;;;;;;6.95;100.00;98735.22;6122734;23;19988;-87
2022/12/08 17:33:25;;;;;;;;;;;;;;;6.94;100.00;98738.81;6121575;23;20356;-85
2022/12/08 17:35:52;;;;;;;;;;;;;;;6.97;100.00;98733.38;6122215;23;19917;-85
2022/12/08 17:38:18;;;;;;;;;;;;;;;7.00;100.00;98732.38;6122550;23;19917;-85
2022/12/08 17:40:44;;;;;;;;;;;;;;;7.00;100.00;98730.59;6122861;23;19917;-84
2022/12/08 17:43:10;;;;;;;;;;;;;;;6.98;100.00;98727.19;6225018;23;19936;-88
2022/12/08 17:45:39;;;;;;;;;;;;;;;6.97;100.00;98733.38;6122180;23;19917;-86
2022/12/08 17:48:04;;;;;;;;;;;;;;;6.98;100.00;98736.88;6223687;23;19916;-84
2022/12/08 17:50:32;;;;;;;;;;;;;;;7.00;100.00;98740.28;6224754;23;19913;-87
2022/12/08 17:52:57;;;;;;;;;;;;;;;7.00;100.00;98733.22;6225266;23;20229;-85
2022/12/08 17:55:23;;;;;;;;;;;;;;;6.99;100.00;98730.66;6224556;23;19917;-85
2022/12/08 17:57:48;;;;;;;;;;;;;;;6.99;100.00;98734.19;6223757;23;20293;-88
2022/12/08 18:00:14;;;;;;;;;;;;;;;7.01;100.00;98734.94;6123324;23;19916;-88
2022/12/08 18:02:39;;;;;;;;;;;;;;;7.00;100.00;98730.59;6222680;23;19952;-88
2022/12/08 18:05:07;;;;;;;;;;;;;;;7.02;100.00;98734.03;6122705;23;19913;-87
2022/12/08 18:07:35;;;;;;;;;;;;;;;7.01;100.00;98732.31;6121761;23;19912;-86
2022/12/08 18:10:00;;;;;;;;;;;;;;;7.04;100.00;98728.69;6250200;22;19916;-89
2022/12/08 18:12:36;;;;;;;;;;;;;;;7.03;100.00;98727.81;6249603;22;19991;-87
2022/12/08 18:15:03;;;;;;;;;;;;;;;7.06;100.00;98729.47;6224530;23;20402;-88
2022/12/08 18:17:28;;;;;;;;;;;;;;;7.06;100.00;98726.84;6223026;23;19966;-88
2022/12/08 18:19:59;;;;;;;;;;;;;;;7.07;100.00;98736.47;6224622;23;19913;-91
2022/12/08 18:22:25;;;;;;;;;;;;;;;7.05;100.00;98731.25;6224395;23;19920;-86
2022/12/08 18:24:53;;;;;;;;;;;;;;;7.05;100.00;98741.81;6122281;23;20333;-85
2022/12/08 18:27:26;;;;;;;;;;;;;;;7.09;100.00;98734.59;6224379;23;19913;-89
2022/12/08 18:29:52;;;;;;;;;;;;;;;7.09;100.00;98739.88;6224097;23;19937;-86
2022/12/08 18:32:22;;;;;;;;;;;;;;;7.08;100.00;98736.41;6249095;22;19916;-90
2022/12/08 18:34:50;;;;;;;;;;;;;;;7.11;100.00;98737.19;6122382;22;20287;-88
2022/12/08 18:37:16;;;;;;;;;;;;;;;7.07;100.00;98737.31;6224184;23;19919;-86
2022/12/08 18:39:41;;;;;;;;;;;;;;;7.09;100.00;98729.34;6122724;23;19996;-86
2022/12/08 18:42:21;;;;;;;;;;;;;;;7.09;100.00;98739.88;6248858;22;19963;-87
2022/12/08 18:44:48;;;;;;;;;;;;;;;7.11;100.00;98740.66;6122044;23;19913;-87
2022/12/08 18:47:13;;;;;;;;;;;;;;;7.11;100.00;98739.81;6122134;23;19952;-86
2022/12/08 18:49:38;;;;;;;;;;;;;;;7.12;100.00;98731.00;6222252;23;19934;-87
2022/12/08 18:52:04;;;;;;;;;;;;;;;7.14;100.00;98737.03;6121756;23;20334;-86
2022/12/08 18:54:36;;;;;;;;;;;;;;;7.13;100.00;98732.69;6121669;23;20276;-85
2022/12/08 18:57:02;;;;;;;;;;;;;;;7.16;100.00;98737.81;6122180;23;19920;-91
2022/12/08 18:59:30;;;;;;;;;;;;;;;7.16;100.00;98737.81;6122141;23;19909;-85
2022/12/08 19:01:56;;;;;;;;;;;;;;;7.14;100.00;98731.78;6244097;23;19939;-87
2022/12/08 19:04:22;;;;;;;;;;;;;;;7.15;100.00;98728.19;6243598;23;19911;-88
2022/12/08 19:06:47;;;;;;;;;;;;;;;7.14;100.00;98734.41;6244797;23;19979;-86
2022/12/08 19:09:13;;;;;;;;;;;;;;;7.15;100.00;98736.09;6244630;22;19915;-89
2022/12/08 19:11:38;;;;;;;;;;;;;;;7.15;100.00;98734.34;6245959;22;19912;-85
2022/12/08 19:14:04;;;;;;;;;;;;;;;7.16;100.00;98732.53;6245443;22;19946;-85
2022/12/08 19:16:29;;;;;;;;;;;;;;;7.17;100.00;98731.63;6243950;23;20547;-87
2022/12/08 19:18:55;;;;;;;;;;;;;;;7.20;100.00;98723.59;6242536;23;20312;-86
2022/12/08 19:21:22;;;;;;;;;;;;;;;7.18;100.00;98717.50;6243416;23;19939;-85
2022/12/08 19:23:50;;;;;;;;;;;;;;;7.19;100.00;98719.22;6244360;23;19919;-92
2022/12/08 19:26:16;;;;;;;;;;;;;;;7.19;100.00;98722.72;6246301;22;20372;-90
2022/12/08 19:28:41;;;;;;;;;;;;;;;7.19;100.00;98725.34;6244829;23;20244;-86
2022/12/08 19:31:07;;;;;;;;;;;;;;;7.19;100.00;98727.13;6245182;22;19912;-88
2022/12/08 19:33:32;;;;;;;;;;;;;;;7.19;100.00;98722.72;6244129;22;19912;-87
2022/12/08 19:35:58;;;;;;;;;;;;;;;7.21;100.00;98717.38;6243788;23;19912;-86
2022/12/08 19:38:23;;;;;;;;;;;;;;;7.21;100.00;98715.63;6246909;23;19915;-89
2022/12/08 19:46:17;;;;;;;;;;;;;;;7.22;100.00;98706.75;6245307;23;19942;-83
2022/12/08 19:48:45;;;;;;;;;;;;;;;7.22;100.00;98708.56;6243909;22;19911;-86
2022/12/08 19:51:11;;;;;;;;;;;;;;;7.22;100.00;98705.91;6244623;23;19912;-85
2022/12/08 19:53:36;;;;;;;;;;;;;;;7.23;100.00;98703.22;6244799;23;19922;-84
2022/12/08 19:56:01;;;;;;;;;;;;;;;7.25;100.00;98705.78;6245519;23;19919;-87
2022/12/08 19:58:27;;;;;;;;;;;;;;;7.23;100.00;98708.50;6245883;23;19958;-85
2022/12/08 20:00:52;;;;;;;;;;;;;;;7.22;100.00;98711.19;6242873;22;19921;-85
2022/12/08 20:03:18;;;;;;;;;;;;;;;7.25;100.00;98705.78;6223840;23;19962;-82
2022/12/08 20:05:44;;;;;;;;;;;;;;;7.24;100.00;98704.06;6122394;23;19940;-86
2022/12/08 20:08:09;;;;;;;;;;;;;;;7.27;100.00;98703.91;6224648;23;20317;-86
2022/12/08 20:10:36;;;;;;;;;;;;;;;7.27;100.00;98698.66;6225267;23;19944;-86